Time;durP1;ratioP1;P1;durP2;ratioP2;P2;SDS_P1;SDS_P2;PMS_P1;PMS_P2;Temp;Humidity;BMP_temperature;BMP_pressure;BME280_temperature;BME280_humidity;BME280_pressure;Samples;Min_cycle;Max_cycle;Signal;HPM_P1;HPM_P2
2022/12/23 00:00:21;;;;;;;19.20;6.67;;;;;;;6.51;100.00;99899.47;5073036;28;20834;-69
2022/12/23 00:02:48;;;;;;;15.40;6.43;;;;;;;6.47;100.00;99898.44;5071916;28;20487;-70
2022/12/23 00:05:16;;;;;;;20.80;6.80;;;;;;;6.45;100.00;99897.91;5073001;28;20441;-69
2022/12/23 00:07:43;;;;;;;23.23;6.73;;;;;;;6.43;100.00;99886.66;5071957;28;20859;-70
2022/12/23 00:10:11;;;;;;;19.10;6.97;;;;;;;6.48;100.00;99883.88;5072527;28;20833;-69
2022/12/23 00:15:21;;;;;;;24.67;7.20;;;;;;;6.49;100.00;99882.78;5072757;28;20408;-70
2022/12/23 00:17:48;;;;;;;15.73;6.93;;;;;;;6.48;100.00;99883.88;5071867;28;20472;-70
2022/12/23 00:20:16;;;;;;;14.07;6.40;;;;;;;6.49;100.00;99880.09;5072515;28;20545;-69
2022/12/23 00:25:40;;;;;;;14.40;5.87;;;;;;;6.44;100.00;99875.59;5073691;28;20409;-70
2022/12/23 00:28:07;;;;;;;19.03;7.60;;;;;;;6.49;100.00;99869.34;5075245;28;20477;-70
2022/12/23 00:30:33;;;;;;;17.90;6.63;;;;;;;6.52;100.00;99861.50;5076545;28;20433;-70
2022/12/23 00:33:00;;;;;;;17.90;6.57;;;;;;;6.55;100.00;99858.22;5074947;28;21036;-70
2022/12/23 00:35:31;;;;;;;16.03;5.90;;;;;;;6.54;100.00;99853.13;5076146;28;20957;-70
2022/12/23 00:37:58;;;;;;;14.70;5.70;;;;;;;6.53;100.00;99852.31;5074236;28;20456;-70
2022/12/23 00:43:08;;;;;;;21.23;7.00;;;;;;;6.48;100.00;99856.97;5074906;28;20557;-70
2022/12/23 00:45:35;;;;;;;14.70;5.63;;;;;;;6.53;100.00;99844.25;5076328;28;20437;-70
2022/12/23 00:50:46;;;;;;;14.63;5.80;;;;;;;6.53;100.00;99846.94;5076030;28;20459;-70
2022/12/23 00:53:13;;;;;;;13.60;5.40;;;;;;;6.51;100.00;99840.28;5075505;28;20523;-70
2022/12/23 00:55:40;;;;;;;14.53;5.87;;;;;;;6.54;100.00;99845.03;5076112;28;20437;-70
2022/12/23 00:58:06;;;;;;;15.80;5.40;;;;;;;6.49;100.00;99842.44;5074687;28;20453;-70
2022/12/23 01:06:03;;;;;;;11.57;4.80;;;;;;;6.52;100.00;99839.97;5074701;28;20830;-70
2022/12/23 01:08:30;;;;;;;14.73;5.00;;;;;;;6.51;100.00;99840.28;5075787;28;20477;-70
2022/12/23 01:10:56;;;;;;;12.57;5.17;;;;;;;6.48;100.00;99830.88;5074425;28;20910;-70
2022/12/23 01:13:23;;;;;;;17.60;4.30;;;;;;;6.47;100.00;99828.50;5075287;28;20844;-70
2022/12/23 01:15:50;;;;;;;12.63;5.30;;;;;;;6.44;100.00;99832.56;5074363;28;20444;-70
2022/12/23 01:18:16;;;;;;;12.17;4.17;;;;;;;6.44;100.00;99829.06;5075721;28;20437;-73
2022/12/23 01:20:43;;;;;;;11.00;4.40;;;;;;;6.44;100.00;99829.88;5074295;28;20895;-70
2022/12/23 01:23:11;;;;;;;10.63;4.20;;;;;;;6.40;100.00;99823.47;5074954;28;21027;-70
2022/12/23 01:25:37;;;;;;;13.83;4.40;;;;;;;6.40;100.00;99828.06;5074537;28;20528;-69
2022/12/23 01:28:04;;;;;;;10.80;4.43;;;;;;;6.38;100.00;99822.19;5075468;28;20488;-70
2022/12/23 01:30:31;;;;;;;11.03;3.93;;;;;;;6.37;100.00;99824.03;5075475;28;20447;-71
2022/12/23 01:32:57;;;;;;;12.30;4.50;;;;;;;6.37;100.00;99823.25;5074600;28;20636;-71
2022/12/23 01:35:24;;;;;;;12.43;4.30;;;;;;;6.34;100.00;99821.16;5075395;28;20441;-72
2022/12/23 01:37:51;;;;;;;15.80;5.83;;;;;;;6.36;100.00;99821.66;5073968;28;20919;-71
2022/12/23 01:40:19;;;;;;;15.70;5.77;;;;;;;6.36;100.00;99817.06;5075281;28;20451;-70
2022/12/23 01:42:45;;;;;;;15.57;5.53;;;;;;;6.39;100.00;99810.31;5074183;28;20617;-70
2022/12/23 01:45:19;;;;;;;21.30;6.60;;;;;;;6.45;100.00;99817.22;5075206;28;20468;-70
2022/12/23 01:47:52;;;;;;;16.80;6.17;;;;;;;6.50;100.00;99817.13;5074070;28;20471;-71
2022/12/23 01:50:23;;;;;;;10.93;4.77;;;;;;;6.55;100.00;99809.78;5074310;28;20452;-70
2022/12/23 01:52:57;;;;;;;18.00;4.90;;;;;;;6.55;100.00;99808.97;5074015;28;20509;-71
2022/12/23 01:55:29;;;;;;;13.43;5.60;;;;;;;6.60;100.00;99802.72;5074037;28;20449;-70
2022/12/23 01:58:00;;;;;;;12.87;5.30;;;;;;;6.62;100.00;99798.66;5074717;28;20975;-71
2022/12/23 02:12:25;;;;;;;13.73;4.30;;;;;;;6.67;100.00;99785.09;5074485;28;20413;-70
2022/12/23 02:18:33;;;;;;;12.03;4.70;;;;;;;6.68;100.00;99781.31;5073338;28;20448;-70
2022/12/23 02:21:15;;;;;;;20.03;5.00;;;;;;;6.66;100.00;99775.44;5066410;28;20977;-70
2022/12/23 02:24:19;;;;;;;13.77;5.10;;;;;;;6.61;100.00;99780.91;5072880;28;20488;-70
2022/12/23 02:27:09;;;;;;;17.77;4.90;;;;;;;6.58;100.00;99771.53;5074287;28;20499;-71
2022/12/23 02:30:00;;;;;;;14.30;5.70;;;;;;;6.55;100.00;99769.44;5072134;28;20476;-70
2022/12/23 02:32:36;;;;;;;13.57;5.57;;;;;;;6.57;100.00;99763.75;5074367;28;20567;-70
2022/12/23 02:35:11;;;;;;;15.17;5.63;;;;;;;6.59;100.00;99766.94;5073090;28;20461;-71
2022/12/23 02:37:44;;;;;;;17.10;5.90;;;;;;;6.59;100.00;99769.63;5073849;28;20794;-69
2022/12/23 02:40:17;;;;;;;18.17;6.10;;;;;;;6.61;100.00;99750.53;5073231;28;20532;-70
2022/12/23 02:42:49;;;;;;;17.07;6.10;;;;;;;6.63;100.00;99761.78;5073970;28;20464;-70
2022/12/23 02:45:23;;;;;;;21.23;6.53;;;;;;;6.68;100.00;99756.31;5072768;28;20548;-69
2022/12/23 02:47:56;;;;;;;15.23;6.10;;;;;;;6.70;100.00;99752.22;5073270;28;20425;-70
2022/12/23 02:50:29;;;;;;;22.43;7.50;;;;;;;6.73;100.00;99751.66;5072882;28;20459;-69
2022/12/23 02:53:00;;;;;;;19.07;7.57;;;;;;;6.77;100.00;99744.59;5073386;28;21010;-69
2022/12/23 02:55:32;;;;;;;13.77;6.17;;;;;;;6.76;100.00;99740.28;5073440;28;20441;-69
2022/12/23 02:58:03;;;;;;;17.77;6.50;;;;;;;6.77;100.00;99739.19;5073716;28;20422;-69
2022/12/23 03:00:30;;;;;;;16.20;5.97;;;;;;;6.77;100.00;99736.50;5073363;28;20449;-69
2022/12/23 03:02:58;;;;;;;15.13;5.20;;;;;;;6.80;100.00;99730.50;5073499;28;20453;-69
2022/12/23 03:05:27;;;;;;;12.73;5.33;;;;;;;6.81;100.00;99726.72;5072792;28;20461;-70
2022/12/23 03:07:58;;;;;;;15.37;6.97;;;;;;;6.82;100.00;99727.53;5073418;28;20528;-69
2022/12/23 03:10:31;;;;;;;15.03;6.73;;;;;;;6.81;100.00;99721.34;5072675;28;20457;-69
2022/12/23 03:13:09;;;;;;;14.37;4.93;;;;;;;6.83;100.00;99719.16;5073101;28;20465;-69
2022/12/23 03:15:46;;;;;;;12.07;5.10;;;;;;;6.85;100.00;99723.44;5072498;28;20457;-69
2022/12/23 03:18:23;;;;;;;18.87;7.70;;;;;;;6.80;100.00;99727.81;5073464;28;20429;-69
2022/12/23 03:20:54;;;;;;;14.13;5.60;;;;;;;6.83;100.00;99729.94;5072229;28;20464;-70
2022/12/23 03:23:25;;;;;;;14.13;6.50;;;;;;;6.86;100.00;99738.50;5072928;28;20476;-70
2022/12/23 03:25:59;;;;;;;18.80;6.10;;;;;;;6.87;100.00;99726.66;5069517;28;20457;-69
2022/12/23 03:28:33;;;;;;;20.97;6.43;;;;;;;6.88;100.00;99723.66;5073046;28;20978;-70
2022/12/23 03:31:03;;;;;;;15.67;6.53;;;;;;;6.90;100.00;99715.28;5072058;28;20838;-70
2022/12/23 03:33:35;;;;;;;14.27;5.53;;;;;;;6.92;100.00;99715.78;5072867;28;20461;-70
2022/12/23 03:36:09;;;;;;;12.83;5.23;;;;;;;6.93;100.00;99722.75;5072264;28;20464;-70
2022/12/23 03:38:39;;;;;;;17.17;5.97;;;;;;;6.93;100.00;99723.56;5073019;28;20899;-70
2022/12/23 03:41:09;;;;;;;14.33;6.47;;;;;;;6.93;100.00;99704.72;5072243;28;20461;-70
2022/12/23 03:43:40;;;;;;;14.97;6.43;;;;;;;6.98;100.00;99718.06;5073236;28;20460;-70
2022/12/23 03:46:13;;;;;;;14.77;5.90;;;;;;;6.96;100.00;99722.16;5071820;28;20457;-70
2022/12/23 03:48:45;;;;;;;14.37;5.80;;;;;;;6.97;100.00;99711.09;5073145;28;20906;-70
2022/12/23 03:51:16;;;;;;;17.07;6.27;;;;;;;6.97;100.00;99716.47;5072841;28;20445;-70
2022/12/23 03:53:47;;;;;;;12.73;5.53;;;;;;;7.00;100.00;99712.41;5072650;28;20465;-69
2022/12/23 03:56:20;;;;;;;14.30;4.60;;;;;;;6.98;100.00;99709.19;5073079;28;20536;-70
2022/12/23 03:58:52;;;;;;;17.80;6.50;;;;;;;6.99;100.00;99705.41;5073053;28;20425;-69
2022/12/23 04:01:25;;;;;;;14.33;6.00;;;;;;;7.00;100.00;99712.41;5074696;28;20457;-70
2022/12/23 04:04:00;;;;;;;13.63;5.73;;;;;;;6.96;100.00;99704.13;5074241;28;20902;-70
2022/12/23 04:06:33;;;;;;;12.33;4.63;;;;;;;6.96;100.00;99700.63;5075985;28;20530;-69
2022/12/23 04:09:02;;;;;;;14.13;5.77;;;;;;;6.95;100.00;99699.84;5076921;28;20885;-70
2022/12/23 04:11:29;;;;;;;12.93;4.87;;;;;;;6.96;100.00;99703.31;5075915;28;20462;-70
2022/12/23 04:13:56;;;;;;;10.40;4.57;;;;;;;6.95;100.00;99697.16;5076587;28;20483;-70
2022/12/23 04:16:23;;;;;;;12.40;4.40;;;;;;;6.97;100.00;99696.84;5075808;28;20461;-70
2022/12/23 04:18:49;;;;;;;14.10;5.40;;;;;;;6.98;100.00;99698.44;5076777;28;20437;-70
2022/12/23 04:21:17;;;;;;;15.37;5.50;;;;;;;6.97;100.00;99691.47;5075770;28;20491;-70
2022/12/23 04:23:44;;;;;;;16.27;6.10;;;;;;;6.98;100.00;99698.44;5076822;28;20560;-70
2022/12/23 04:26:10;;;;;;;13.00;5.47;;;;;;;6.98;100.00;99701.13;5075526;28;20461;-71
2022/12/23 04:28:37;;;;;;;14.83;5.83;;;;;;;6.95;100.00;99699.84;5076564;28;20447;-71
2022/12/23 04:31:04;;;;;;;21.50;5.43;;;;;;;6.97;100.00;99696.84;5075550;28;20465;-72
2022/12/23 04:33:30;;;;;;;14.43;5.37;;;;;;;7.02;100.00;99704.81;5076096;28;20842;-70
2022/12/23 04:35:59;;;;;;;12.90;4.50;;;;;;;7.03;100.00;99699.13;5075329;28;20548;-70
2022/12/23 04:38:27;;;;;;;15.97;4.90;;;;;;;7.01;100.00;99701.31;5076428;28;20437;-70
2022/12/23 04:40:54;;;;;;;14.43;5.70;;;;;;;6.99;100.00;99691.94;5075390;28;20492;-70
2022/12/23 04:43:20;;;;;;;22.20;5.80;;;;;;;7.02;100.00;99692.16;5076239;28;20461;-70
2022/12/23 04:45:50;;;;;;;15.33;5.20;;;;;;;7.03;100.00;99690.25;5074870;28;20882;-70
2022/12/23 04:48:16;;;;;;;13.70;4.80;;;;;;;7.07;100.00;99691.25;5075944;28;20536;-70
2022/12/23 04:50:43;;;;;;;12.40;5.40;;;;;;;7.10;100.00;99696.03;5075136;28;20480;-70
2022/12/23 04:53:10;;;;;;;14.93;5.67;;;;;;;7.05;100.00;99688.06;5075237;28;20487;-70
2022/12/23 04:55:38;;;;;;;14.07;6.40;;;;;;;7.03;100.00;99691.03;5074972;28;20493;-70
2022/12/23 04:58:04;;;;;;;15.93;5.47;;;;;;;7.06;100.00;99690.44;5076071;28;20441;-70
2022/12/23 05:00:31;;;;;;;16.97;6.00;;;;;;;7.08;100.00;99703.59;5074989;28;21177;-70
2022/12/23 05:02:57;;;;;;;20.50;5.73;;;;;;;7.10;100.00;99687.16;5075787;28;20461;-70
2022/12/23 05:05:24;;;;;;;15.40;6.00;;;;;;;7.07;100.00;99685.88;5074622;28;20544;-70
2022/12/23 05:07:52;;;;;;;18.43;7.17;;;;;;;7.02;100.00;99697.53;5074751;28;20483;-71
2022/12/23 05:10:18;;;;;;;16.40;6.30;;;;;;;6.99;100.00;99694.63;5074388;28;20530;-70
2022/12/23 05:12:46;;;;;;;15.23;6.03;;;;;;;6.97;100.00;99696.84;5074844;28;20467;-71
2022/12/23 05:15:12;;;;;;;18.00;5.73;;;;;;;6.91;100.00;99698.84;5074764;28;20489;-70
2022/12/23 05:17:39;;;;;;;17.87;5.83;;;;;;;6.91;100.00;99692.66;5075397;28;20939;-70
2022/12/23 05:20:07;;;;;;;13.93;5.50;;;;;;;6.94;100.00;99695.53;5074536;28;20559;-71
2022/12/23 05:22:34;;;;;;;13.23;5.50;;;;;;;6.96;100.00;99695.25;5075161;28;20508;-71
2022/12/23 05:25:00;;;;;;;11.07;4.40;;;;;;;6.97;100.00;99691.47;5074262;28;20955;-71
2022/12/23 05:27:27;;;;;;;14.63;6.23;;;;;;;6.93;100.00;99690.47;5075588;28;20441;-70
2022/12/23 05:29:55;;;;;;;13.37;4.43;;;;;;;6.89;100.00;99687.56;5073000;28;20481;-71
2022/12/23 05:32:21;;;;;;;16.43;5.37;;;;;;;6.82;100.00;99689.88;5070958;28;20524;-71
2022/12/23 05:34:48;;;;;;;14.50;4.70;;;;;;;6.81;100.00;99699.00;5074571;28;20460;-71
2022/12/23 05:37:14;;;;;;;11.80;4.33;;;;;;;6.85;100.00;99693.84;5075361;28;20437;-70
2022/12/23 05:39:41;;;;;;;11.40;5.17;;;;;;;6.83;100.00;99703.00;5074318;28;20455;-70
2022/12/23 05:42:08;;;;;;;11.77;4.07;;;;;;;6.83;100.00;99691.44;5073768;28;20487;-71
2022/12/23 05:44:34;;;;;;;12.37;5.17;;;;;;;6.84;100.00;99687.66;5074188;28;20580;-70
2022/12/23 05:47:02;;;;;;;14.23;4.40;;;;;;;6.87;100.00;99679.00;5075130;28;20437;-70
2022/12/23 05:49:29;;;;;;;11.20;3.93;;;;;;;6.80;100.00;99682.06;5074024;28;20491;-70
2022/12/23 05:51:55;;;;;;;9.40;4.20;;;;;;;6.79;100.00;99690.44;5074031;28;20480;-70
2022/12/23 05:54:22;;;;;;;11.27;3.93;;;;;;;6.85;100.00;99683.88;5073684;28;20445;-71
2022/12/23 05:56:48;;;;;;;9.43;3.77;;;;;;;6.86;100.00;99684.66;5074211;28;20477;-71
2022/12/23 05:59:15;;;;;;;10.50;4.03;;;;;;;6.86;100.00;99687.34;5074647;28;20516;-71
2022/12/23 06:01:41;;;;;;;12.90;4.13;;;;;;;6.89;100.00;99694.84;5073768;28;20498;-70
2022/12/23 06:04:09;;;;;;;12.37;4.90;;;;;;;6.85;100.00;99707.28;5073710;28;20540;-71
2022/12/23 06:06:36;;;;;;;14.20;4.57;;;;;;;6.88;100.00;99709.41;5073938;28;20473;-71
2022/12/23 06:09:03;;;;;;;14.67;4.80;;;;;;;6.88;100.00;99710.19;5074637;28;20469;-70
2022/12/23 06:11:29;;;;;;;15.73;5.20;;;;;;;6.91;100.00;99715.00;5073633;28;20461;-70
2022/12/23 06:13:56;;;;;;;13.57;3.83;;;;;;;6.92;100.00;99716.59;5073382;28;20540;-70
2022/12/23 06:16:22;;;;;;;9.80;3.83;;;;;;;6.96;100.00;99716.78;5074635;28;20445;-70
2022/12/23 06:18:49;;;;;;;10.27;4.23;;;;;;;6.95;100.00;99715.16;5073676;28;20492;-70
2022/12/23 06:21:17;;;;;;;10.33;3.60;;;;;;;6.94;100.00;99714.38;5073012;28;20540;-70
2022/12/23 06:23:44;;;;;;;13.93;4.70;;;;;;;6.95;100.00;99717.88;5072115;28;20516;-70
2022/12/23 06:26:10;;;;;;;18.80;5.63;;;;;;;6.90;100.00;99723.34;5074407;28;20442;-70
2022/12/23 06:28:37;;;;;;;11.50;4.33;;;;;;;6.93;100.00;99726.25;5073336;28;20472;-70
2022/12/23 06:31:03;;;;;;;13.00;4.63;;;;;;;6.96;100.00;99727.56;5074195;28;20489;-70
2022/12/23 06:33:30;;;;;;;14.00;4.50;;;;;;;6.95;100.00;99736.72;5073059;28;20560;-70
2022/12/23 06:35:57;;;;;;;14.03;4.70;;;;;;;6.94;100.00;99732.44;5074286;28;20531;-70
2022/12/23 06:38:25;;;;;;;11.63;4.50;;;;;;;6.95;100.00;99742.09;5072836;28;20951;-70
2022/12/23 06:40:51;;;;;;;11.77;4.47;;;;;;;6.94;100.00;99754.75;5072537;28;20454;-70
2022/12/23 06:43:18;;;;;;;19.17;4.53;;;;;;;6.92;100.00;99753.47;5072803;28;21023;-70
2022/12/23 06:45:47;;;;;;;12.00;4.83;;;;;;;6.90;100.00;99761.03;5073997;28;20528;-70
2022/12/23 06:48:14;;;;;;;15.90;4.50;;;;;;;6.84;100.00;99760.34;5072646;28;20544;-70
2022/12/23 06:50:41;;;;;;;13.07;4.67;;;;;;;6.85;100.00;99761.91;5072757;28;20592;-70
2022/12/23 06:53:08;;;;;;;12.23;4.17;;;;;;;6.86;100.00;99765.41;5072810;28;20488;-70
2022/12/23 06:55:36;;;;;;;13.17;4.07;;;;;;;6.83;100.00;99761.44;5072956;28;20548;-70
2022/12/23 06:58:02;;;;;;;10.70;3.53;;;;;;;6.83;100.00;99770.31;5072770;28;20532;-69
2022/12/23 07:00:29;;;;;;;18.53;4.37;;;;;;;6.89;100.00;99779.06;5071694;28;20666;-69
2022/12/23 07:02:55;;;;;;;10.53;5.17;;;;;;;6.91;100.00;99778.81;5067851;28;20477;-70
2022/12/23 07:05:22;;;;;;;11.30;4.37;;;;;;;6.88;100.00;99785.56;5061580;28;20449;-72
2022/12/23 07:07:49;;;;;;;14.23;4.27;;;;;;;6.89;100.00;99783.66;5072334;28;20433;-70
2022/12/23 07:10:15;;;;;;;11.47;4.17;;;;;;;6.86;100.00;99784.25;5058011;28;21029;-70
2022/12/23 07:12:43;;;;;;;12.00;4.63;;;;;;;6.88;100.00;99785.56;5071868;28;20833;-70
2022/12/23 07:15:10;;;;;;;11.60;4.20;;;;;;;6.89;100.00;99786.34;5072723;28;20468;-70
2022/12/23 07:17:37;;;;;;;12.33;4.77;;;;;;;6.92;100.00;99780.38;5070237;28;21029;-69
2022/12/23 07:20:04;;;;;;;15.53;5.23;;;;;;;6.96;100.00;99787.59;5073429;28;20463;-69
2022/12/23 07:22:30;;;;;;;9.20;3.87;;;;;;;6.95;100.00;99786.00;5072394;28;20562;-71
2022/12/23 07:24:57;;;;;;;11.17;5.13;;;;;;;6.94;100.00;99788.97;5069908;28;20461;-72
2022/12/23 07:27:24;;;;;;;17.70;6.30;;;;;;;6.94;100.00;99788.97;5072477;28;20457;-71
2022/12/23 07:29:52;;;;;;;15.50;5.63;;;;;;;6.96;100.00;99792.16;5072119;28;20485;-70
2022/12/23 07:32:18;;;;;;;17.13;6.00;;;;;;;6.99;100.00;99791.56;5073176;28;20552;-70
2022/12/23 07:34:45;;;;;;;19.53;5.90;;;;;;;7.02;100.00;99793.66;5072266;28;20540;-70
2022/12/23 07:37:11;;;;;;;14.10;5.30;;;;;;;7.02;100.00;99801.75;5071987;28;20954;-70
2022/12/23 07:39:38;;;;;;;18.07;7.03;;;;;;;7.01;100.00;99805.53;5073273;28;20453;-70
2022/12/23 07:42:04;;;;;;;16.20;5.47;;;;;;;6.97;100.00;99809.91;5071135;28;20511;-70
2022/12/23 07:44:31;;;;;;;13.30;5.33;;;;;;;6.98;100.00;99808.81;5073189;28;20499;-70
2022/12/23 07:47:00;;;;;;;17.40;5.67;;;;;;;7.03;100.00;99812.22;5072131;28;20557;-71
2022/12/23 07:49:26;;;;;;;15.60;6.87;;;;;;;7.06;100.00;99811.63;5073079;28;20445;-70
2022/12/23 07:51:53;;;;;;;18.67;7.10;;;;;;;7.08;100.00;99811.31;5070442;28;20495;-69
2022/12/23 07:54:19;;;;;;;14.77;6.10;;;;;;;7.07;100.00;99813.22;5073057;28;20544;-70
2022/12/23 07:56:46;;;;;;;18.93;6.27;;;;;;;7.08;100.00;99825.59;5071913;28;20493;-71
2022/12/23 07:59:13;;;;;;;15.63;6.50;;;;;;;7.11;100.00;99826.88;5070697;28;20548;-71
2022/12/23 08:01:39;;;;;;;16.30;6.43;;;;;;;7.15;100.00;99829.78;5073052;28;20441;-70
2022/12/23 08:04:07;;;;;;;18.63;7.10;;;;;;;7.19;100.00;99833.50;5072981;28;20445;-70
2022/12/23 08:06:35;;;;;;;13.53;5.37;;;;;;;7.21;100.00;99831.28;5072992;28;20480;-70
2022/12/23 08:09:02;;;;;;;14.40;6.70;;;;;;;7.23;100.00;99832.59;5072596;28;20445;-70
2022/12/23 08:11:28;;;;;;;17.17;5.60;;;;;;;7.28;100.00;99832.50;5072767;28;20568;-70
2022/12/23 08:13:55;;;;;;;18.70;6.40;;;;;;;7.32;100.00;99833.50;5072491;28;20514;-71
2022/12/23 08:16:21;;;;;;;26.50;7.63;;;;;;;7.37;100.00;99837.22;5072942;28;20437;-71
2022/12/23 08:18:48;;;;;;;18.83;7.20;;;;;;;7.41;100.00;99839.00;5072876;28;20865;-71
2022/12/23 08:21:18;;;;;;;18.40;6.40;;;;;;;7.46;100.00;99844.28;5072378;28;20441;-70
2022/12/23 08:23:45;;;;;;;23.40;6.20;;;;;;;7.47;100.00;99848.56;5072162;28;20474;-70
2022/12/23 08:26:15;;;;;;;16.90;6.67;;;;;;;7.45;100.00;99845.41;5072695;28;20449;-70
2022/12/23 08:28:42;;;;;;;21.90;7.27;;;;;;;7.45;100.00;99850.00;5072680;28;20449;-71
2022/12/23 08:31:18;;;;;;;20.30;7.70;;;;;;;7.46;100.00;99848.88;5072220;28;20485;-72
2022/12/23 08:33:46;;;;;;;13.33;5.17;;;;;;;7.47;100.00;99848.56;5072574;28;20496;-69
2022/12/23 08:36:16;;;;;;;20.37;7.00;;;;;;;7.47;100.00;99848.56;5072556;28;20437;-71
2022/12/23 08:38:43;;;;;;;20.80;8.03;;;;;;;7.45;100.00;99845.41;5072474;28;20931;-71
2022/12/23 08:41:10;;;;;;;18.43;6.00;;;;;;;7.46;100.00;99852.38;5072266;28;20978;-71
2022/12/23 08:43:37;;;;;;;29.67;8.73;;;;;;;7.44;100.00;99846.50;5072549;28;20464;-72
2022/12/23 08:46:05;;;;;;;20.60;7.50;;;;;;;7.45;100.00;99847.28;5072950;28;20440;-71
2022/12/23 08:48:32;;;;;;;25.20;7.77;;;;;;;7.47;100.00;99858.56;5075977;28;21018;-70
2022/12/23 08:51:03;;;;;;;18.80;6.60;;;;;;;7.45;100.00;99852.69;5075814;28;20571;-70
2022/12/23 08:53:31;;;;;;;24.40;7.83;;;;;;;7.47;100.00;99861.25;5076112;28;20465;-69
2022/12/23 08:56:02;;;;;;;22.27;8.23;;;;;;;7.48;100.00;99860.16;5076146;28;20433;-69
2022/12/23 08:58:29;;;;;;;20.77;8.50;;;;;;;7.42;100.00;99856.75;5075776;28;20915;-69
2022/12/23 09:00:55;;;;;;;18.03;6.43;;;;;;;7.41;100.00;99867.84;5075708;28;20951;-69
2022/12/23 09:03:22;;;;;;;24.70;6.90;;;;;;;7.46;100.00;99878.53;5075924;28;20457;-70
2022/12/23 09:05:49;;;;;;;18.67;6.03;;;;;;;7.53;100.00;99892.41;5075907;28;20947;-69
2022/12/23 09:08:15;;;;;;;24.13;7.47;;;;;;;7.52;100.00;99894.28;5075834;28;20441;-69
2022/12/23 09:10:44;;;;;;;21.70;7.67;;;;;;;7.55;100.00;99880.22;5075871;28;20503;-69
2022/12/23 09:13:11;;;;;;;18.97;9.53;;;;;;;7.62;100.00;99887.94;5075823;28;20478;-70
2022/12/23 09:15:41;;;;;;;21.87;8.40;;;;;;;7.65;100.00;99895.41;5075775;28;20827;-70
2022/12/23 09:18:07;;;;;;;20.37;7.73;;;;;;;7.68;100.00;99904.81;5075665;28;20437;-69
2022/12/23 09:20:34;;;;;;;15.73;6.80;;;;;;;7.69;100.00;99912.56;5075748;28;20437;-69
2022/12/23 09:23:00;;;;;;;25.73;7.17;;;;;;;7.66;100.00;99915.91;5075326;28;20561;-69
2022/12/23 09:25:27;;;;;;;23.17;6.27;;;;;;;7.65;100.00;99911.56;5075605;28;20815;-69
2022/12/23 09:27:55;;;;;;;17.67;6.37;;;;;;;7.69;100.00;99917.97;5075610;28;20438;-69
2022/12/23 09:30:22;;;;;;;17.83;5.10;;;;;;;7.75;100.00;99914.09;5075561;28;20634;-69
2022/12/23 09:32:49;;;;;;;22.33;6.33;;;;;;;7.80;100.00;99934.78;5075459;28;20487;-69
2022/12/23 09:35:15;;;;;;;19.67;6.87;;;;;;;7.75;100.00;99941.06;5075174;28;20476;-69
2022/12/23 09:37:42;;;;;;;17.23;5.07;;;;;;;7.80;100.00;99957.13;5075381;28;20481;-69
2022/12/23 09:40:11;;;;;;;16.30;5.03;;;;;;;7.82;100.00;99943.34;5075312;28;20484;-69
2022/12/23 09:42:49;;;;;;;10.87;3.80;;;;;;;7.80;100.00;99951.75;5070665;28;20488;-69
2022/12/23 09:45:32;;;;;;;15.53;5.10;;;;;;;7.80;100.00;99949.03;5071729;28;20461;-69
2022/12/23 09:48:29;;;;;;;15.50;4.43;;;;;;;7.77;100.00;99955.03;5074744;28;20638;-69
2022/12/23 09:50:56;;;;;;;13.83;5.07;;;;;;;7.80;100.00;99951.75;5073620;28;20560;-69
2022/12/23 09:53:27;;;;;;;12.27;4.40;;;;;;;7.82;100.00;99957.63;5075021;28;20477;-69
2022/12/23 09:56:00;;;;;;;13.57;4.40;;;;;;;7.86;100.00;99955.13;5073653;28;20452;-69
2022/12/23 09:58:30;;;;;;;14.60;4.33;;;;;;;7.91;100.00;99956.94;5075000;28;20476;-69
2022/12/23 10:01:10;;;;;;;15.10;5.07;;;;;;;7.95;100.00;99969.53;5073661;28;20923;-69
2022/12/23 10:03:58;;;;;;;11.60;4.23;;;;;;;7.97;100.00;99977.31;5074476;28;21037;-70
2022/12/23 10:06:28;;;;;;;11.43;4.00;;;;;;;7.97;100.00;99972.75;5073989;28;20457;-69
2022/12/23 10:09:00;;;;;;;16.40;4.90;;;;;;;8.05;100.00;99972.00;5073643;28;20472;-69
2022/12/23 10:11:31;;;;;;;13.80;4.00;;;;;;;8.11;100.00;99975.44;5074400;28;20508;-72
2022/12/23 10:14:01;;;;;;;11.87;3.93;;;;;;;8.14;100.00;99966.72;5071857;28;20461;-69
2022/12/23 10:16:34;;;;;;;12.17;4.50;;;;;;;8.13;100.00;99970.53;5072808;28;20452;-69
2022/12/23 10:19:04;;;;;;;12.90;4.60;;;;;;;8.12;100.00;99968.13;5073827;28;20453;-69
2022/12/23 10:21:35;;;;;;;12.03;4.73;;;;;;;8.12;100.00;99963.53;5072406;28;20462;-69
2022/12/23 10:24:11;;;;;;;12.73;4.17;;;;;;;8.14;100.00;99968.63;5070934;28;20457;-69
2022/12/23 10:26:45;;;;;;;11.83;4.80;;;;;;;8.22;100.00;99968.72;5071400;28;20457;-69
2022/12/23 10:29:17;;;;;;;21.90;4.67;;;;;;;8.23;100.00;99970.31;5074843;28;20515;-69
2022/12/23 10:31:57;;;;;;;21.13;5.53;;;;;;;8.21;100.00;99967.13;5073337;28;20475;-69
2022/12/23 10:34:34;;;;;;;17.53;4.57;;;;;;;8.23;100.00;99964.94;5074157;28;20430;-69
2022/12/23 10:37:08;;;;;;;13.13;4.40;;;;;;;8.22;100.00;99967.94;5073646;28;20451;-69
2022/12/23 10:39:42;;;;;;;16.53;5.47;;;;;;;8.31;100.00;99968.81;5073622;28;20426;-69
2022/12/23 10:42:20;;;;;;;13.60;4.70;;;;;;;8.35;100.00;99956.34;5054393;28;20466;-69
2022/12/23 10:45:13;;;;;;;15.30;5.10;;;;;;;8.41;100.00;99952.47;5054598;28;20430;-69
2022/12/23 10:47:52;;;;;;;12.83;4.20;;;;;;;8.50;100.00;99953.38;5070350;28;20993;-69
2022/12/23 10:50:50;;;;;;;13.90;5.17;;;;;;;8.55;100.00;99955.94;5073226;28;20468;-69
2022/12/23 10:53:26;;;;;;;10.70;4.13;;;;;;;8.52;100.00;99966.53;5067751;28;20552;-69
2022/12/23 10:55:53;;;;;;;10.37;3.63;;;;;;;8.49;100.00;99962.53;5072736;28;20504;-69
2022/12/23 10:58:21;;;;;;;16.00;4.20;;;;;;;8.52;100.00;99971.94;5073536;28;20445;-69
2022/12/23 11:00:54;;;;;;;11.60;3.43;;;;;;;8.40;100.00;99974.34;5072865;28;20457;-69
2022/12/23 11:03:28;;;;;;;10.70;3.90;;;;;;;8.30;100.00;99975.31;5073443;28;20479;-69
2022/12/23 11:05:56;;;;;;;13.57;5.07;;;;;;;8.24;100.00;99971.16;5072697;28;20539;-69
2022/12/23 11:08:25;;;;;;;10.73;4.53;;;;;;;8.23;100.00;99975.72;5073512;28;20439;-69
2022/12/23 11:10:53;;;;;;;13.00;4.67;;;;;;;8.23;100.00;99973.00;5072131;28;20572;-69
2022/12/23 11:13:25;;;;;;;14.03;4.97;;;;;;;8.24;100.00;99971.94;5073450;28;20488;-69
2022/12/23 11:15:52;;;;;;;10.93;4.30;;;;;;;8.20;100.00;99968.25;5064425;28;20457;-69
2022/12/23 11:18:20;;;;;;;16.03;5.70;;;;;;;8.25;100.00;99984.31;5073509;28;20491;-69
2022/12/23 11:21:03;;;;;;;12.67;5.30;;;;;;;8.17;100.00;99982.31;5072420;28;20461;-69
2022/12/23 11:23:31;;;;;;;11.63;5.00;;;;;;;8.22;100.00;99982.22;5071083;28;20937;-69
2022/12/23 11:26:02;;;;;;;16.43;5.50;;;;;;;8.23;100.00;99985.72;5073409;28;20837;-69
2022/12/23 11:28:30;;;;;;;11.23;4.50;;;;;;;8.24;100.00;99988.13;5072134;28;20978;-69
2022/12/23 11:30:59;;;;;;;18.97;5.57;;;;;;;8.22;100.00;99987.63;5073248;28;20437;-69
2022/12/23 11:33:28;;;;;;;12.67;4.10;;;;;;;8.19;100.00;99993.63;5072179;28;20501;-69
2022/12/23 11:36:06;;;;;;;13.70;4.83;;;;;;;8.24;100.00;99998.13;5072351;28;20504;-69
2022/12/23 11:38:35;;;;;;;13.50;5.80;;;;;;;8.17;100.00;99990.41;5071252;28;20959;-69
2022/12/23 11:41:03;;;;;;;15.63;5.27;;;;;;;8.17;100.00;99989.63;5071082;28;20459;-69
2022/12/23 11:43:33;;;;;;;13.73;4.80;;;;;;;8.23;100.00;99985.72;5073143;28;20484;-69
2022/12/23 11:46:17;;;;;;;15.93;5.60;;;;;;;8.22;100.00;99994.91;5070755;28;20899;-69
2022/12/23 11:48:45;;;;;;;20.13;6.10;;;;;;;8.13;100.00;99997.50;5053061;28;20524;-69
2022/12/23 11:51:24;;;;;;;18.17;6.60;;;;;;;8.16;100.00;99999.63;5056049;28;20488;-69
2022/12/23 11:53:59;;;;;;;12.77;5.67;;;;;;;8.19;100.00;99999.03;5067367;28;20481;-69
2022/12/23 11:56:26;;;;;;;15.73;6.27;;;;;;;8.19;100.00;100001.72;5072288;28;20507;-69
2022/12/23 11:58:57;;;;;;;13.97;6.67;;;;;;;8.21;100.00;100004.09;5071790;28;20481;-69
2022/12/23 12:01:25;;;;;;;14.40;6.20;;;;;;;8.25;100.00;100024.78;5073036;28;20509;-69
2022/12/23 12:03:55;;;;;;;17.83;5.50;;;;;;;8.18;100.00;100027.06;5071595;28;20545;-70
2022/12/23 12:06:24;;;;;;;17.07;6.43;;;;;;;8.23;100.00;100029.66;5070850;28;20465;-70